Aérodrome :
LOGIN :

S'inscrire | Disclaimer

   EN    FR    IT 

 










Légende :    VFR   VFR Marginal   IFR   IFR Intensif   IFR Très Intensif
Visi : 
Plafond : 
>= 8 km
>= 3000ft
5 à 8 km
1000 à 3000 ft
1500m à 5 km
500 à 1000 ft
800 à 1500m
200 à 500 ft
< 800m
< 200 ft
Symboles :   Orages  Brouillard  Fortes neiges  Fortes précipitations  Vent > 20 kt
SIGMETs :   Divers  Orages  Givrage  Turbulence  Onde Orograph.  Cendres Volcan.







- Altitude de l'aérodrome : 13 ft
- Code IATA : LYX
- Voir les cartes d'approche


EGMD - Lydd

DERNIER METAR :
  • 220350Z AUTO 24009KT 9999 BKN022/// OVC027/// 10/09 Q1008

METARs EXPIRÉS :
  • 220320Z AUTO 24008KT 9999 OVC023/// 10/09 Q1007
  • 220250Z AUTO 24009KT 9999 BKN021/// OVC026/// 10/09 Q1007
  • 220220Z AUTO 24008KT 9999 OVC022/// 10/09 Q1007
  • 220150Z AUTO 24011KT 9999 BKN026/// 10/09 Q1007
  • 220120Z AUTO 25015KT 9999 NCD 10/09 Q1007

TAF TAF EGMD
Valide du 22 à 03h jusqu'au 22 à 12h UTC


220157Z 2203/2212 25012KT 9999 SCT020
PROB30
TEMPO 2204/2207 6000 -RA BKN012
ATIS : +44 1797 322 422
Pas de NOTAMs connus pour ce terrain.
1 SIGMET publié pour la FIR London (EGTT) :
 
Onde orographique forte
EGTT SIGMET 01 VALID 220230/220630 EGRR
EGTT LONDON FIR SEV MTW FCST WI N5500 W00348 - N5500 E00025 - N5320 E00143 - N5309 W00144 - N5500 W00348 FL040/270 STNR NC=



MET'MAP, la Météo Aéronautique d'un coup d'oeil ! - Copyright ORBIFLY Décembre 2007 - Disclaimer

ORBIFLY MET'MAP TEAM :

Programmation & Développement : Alexandra Zaïnal
Conception & Développement : Baudouin d'Aumeries
Co-Programmation & Développement : Marc-Olivier Méhu
Soutien technique & logistique : Manuel Goepfert

Contact : metmap@orbifly.com




SOURCES & CREDITS :

   NOAA